Latest Coastal Weather Observations for Moruya Airport

IDN60701

Issued at 8:11 am EST Tuesday 31 May 2016 (issued every 10 minutes, with the page automatically refreshed every 10 minutes)

About coastal observations | Map of coastal stations | Coastal observations for NSW | Marine services | Other Formats
Station Details ID: 069148 Name: MORUYA AIRPORT AWS Lat: -35.90 Lon: 150.14 Height: 4.0 m
Data from the previous 72 hours. | See also: Recent months at Moruya Airport
Date/Time
EST
Temp

°C
Wind Pressure Rain
since 9am
mm
Weather Cloud Vis
km
Sea
Height
m
Swell
Dir
 
Speed
knots
Gust
knots
hPa Trend Height
m
Period
s
Dir
31/08:00am 10.9 WSW 8 11 1030.1 - 0.2 - Partly cloudy 10 - - - -
31/07:30am 10.7 WSW 6 9 1029.9 - 0.2 - Partly cloudy 10 - - - -
31/07:00am 9.5 W 4 6 1029.8 - 0.2 - Partly cloudy 10 - - - -
31/06:30am 9.3 W 5 7 1029.6 - 0.2 - Partly cloudy 10 - - - -
31/06:00am 9.0 W 5 7 1029.4 - 0.2 - Partly cloudy 10 - - - -
31/05:30am 9.2 W 6 8 1029.2 - 0.2 - Partly cloudy 10 - - - -
31/05:00am 8.2 W 5 6 1028.9 - 0.2 - Partly cloudy 10 - - - -
31/04:30am 8.3 W 5 7 1028.8 - 0.2 - - 10 - - - -
31/04:00am 8.7 W 6 8 1028.7 - 0.2 - - 10 - - - -
31/03:30am 6.6 W 4 6 1028.7 - 0.2 - - 10 - - - -
31/03:00am 7.3 W 4 5 1028.7 - 0.2 - Mostly clear 10 - - - -
31/02:30am 7.5 WSW 4 7 1028.8 - 0.2 - - 10 - - - -
31/02:00am 7.8 W 5 7 1028.6 - 0.2 - - 10 - - - -
31/01:30am 8.6 WSW 6 8 1028.7 - 0.2 - - 10 - - - -
31/01:00am 7.6 WSW 4 6 1028.8 - 0.2 - Partly cloudy 10 - - - -
31/12:30am 8.1 WNW 4 5 1029.0 - 0.2 - Partly cloudy 10 - - - -
31/12:00am 8.1 W 3 4 1028.9 - 0.2 - - 10 - - - -
 
Date/Time
EST
Temp

°C
Wind Pressure Rain
since 9am
mm
Weather Cloud Vis
km
Sea
Height
m
Swell
Dir
 
Speed
knots
Gust
knots
hPa Trend Height
m
Period
s
Dir
30/11:30pm 8.8 WSW 2 4 1028.7 - 0.2 - Partly cloudy 10 - - - -
30/11:00pm 9.5 SW 4 6 1028.7 - 0.2 - Cloudy 10 - - - -
30/10:30pm 8.1 CALM 0 0 1028.7 - 0.2 - Partly cloudy 10 - - - -
30/10:00pm 8.5 W 4 5 1028.5 - 0.2 - - 10 - - - -
30/09:30pm 9.9 W 4 5 1028.4 - 0.2 - Partly cloudy 10 - - - -
30/09:00pm 10.6 W 4 5 1028.1 - 0.0 - Cloudy 10 - - - -
30/08:30pm 10.3 WSW 5 6 1027.9 - 0.0 - Partly cloudy 10 - - - -
30/08:00pm 9.9 WSW 5 6 1027.7 - 0.0 - Partly cloudy 10 - - - -
30/07:30pm 10.1 W 5 6 1027.5 - 0.0 - Partly cloudy 10 - - - -
30/07:00pm 10.2 W 5 6 1027.4 - 0.0 - - 10 - - - -
30/06:30pm 10.5 WSW 5 6 1027.1 - 0.0 - - 10 - - - -
30/06:00pm 11.1 WSW 4 5 1026.6 - 0.0 - Mostly clear 10 - - - -
30/05:30pm 12.6 SW 5 6 1026.3 - 0.0 - - 10 - - - -
30/05:00pm 14.3 SSW 5 7 1026.0 - 0.0 - - 10 - - - -
30/04:30pm 15.3 S 7 10 1025.5 - 0.0 - - 10 - - - -
30/04:00pm 16.3 SSE 9 11 1025.3 - 0.0 - - 10 - - - -
30/03:30pm 16.6 SSE 8 12 1025.2 - 0.0 - - 10 - - - -
30/03:00pm 16.9 SSE 9 12 1024.8 - 0.0 - - 10 - - - -
30/02:30pm 17.1 SE 9 13 1024.6 - 0.0 - - 10 - - - -
30/02:00pm 17.1 SE 9 11 1024.5 - 0.0 - - 10 - - - -
30/01:30pm 17.4 SE 8 11 1024.5 - 0.0 - - 10 - - - -
30/01:00pm 17.1 SSE 7 10 1024.5 - 0.0 - - 10 - - - -
30/12:30pm 17.5 SSW 6 9 1024.6 - 0.0 - - 10 - - - -
30/12:00pm 16.9 S 10 13 1025.0 - 0.0 - - 10 - - - -
30/11:30am 16.4 SSW 11 14 1025.3 - 0.0 - - 10 - - - -
30/11:00am 16.4 SSW 9 13 1025.5 - 0.0 - - 10 - - - -
30/10:30am 15.1 WSW 6 9 1025.6 - 0.0 - - 10 - - - -
30/10:00am 13.3 WSW 5 7 1025.7 - 0.0 - - 10 - - - -
30/09:30am 11.6 WSW 6 8 1025.6 - 0.0 - - 10 - - - -
30/09:00am 9.7 WSW 5 7 1025.3 - 0.0 - - 10 - - - -
30/08:30am 8.3 WSW 4 8 1025.1 - 0.0 - - 10 - - - -
30/08:00am 6.4 WSW 3 5 1024.7 - 0.0 - - 10 - - - -
30/07:30am 4.4 WSW 4 5 1024.4 - 0.0 - - 10 - - - -
30/07:00am 3.4 WSW 5 8 1024.0 - 0.0 - - 10 - - - -
30/06:30am 3.6 WSW 4 6 1023.7 - 0.0 - - 10 - - - -
30/06:00am 3.8 W 4 6 1023.2 - 0.0 - - 10 - - - -
30/05:30am 4.6 W 4 6 1022.7 - 0.0 - - 10 - - - -
30/05:00am 3.8 WSW 4 5 1022.6 - 0.0 - - 10 - - - -
30/04:30am 4.5 W 5 7 1022.2 - 0.0 - - 10 - - - -
30/04:00am 4.6 WSW 5 7 1022.0 - 0.0 - - 10 - - - -
30/03:30am 4.4 WSW 5 6 1021.8 - 0.0 - - 10 - - - -
30/03:00am 5.9 W 4 5 1021.7 - 0.0 - - 10 - - - -
30/02:30am 6.8 WSW 5 9 1021.7 - 0.0 - - 10 - - - -
30/02:00am 6.8 W 5 7 1021.6 - 0.0 - - 10 - - - -
30/01:30am 7.2 W 6 8 1021.5 - 0.0 - - 10 - - - -
30/01:00am 7.9 W 7 8 1021.3 - 0.0 - - 10 - - - -
30/12:30am 7.9 W 7 9 1021.2 - 0.0 - - 10 - - - -
30/12:00am 6.5 W 6 8 1021.2 - 0.0 - - 10 - - - -
 
Date/Time
EST
Temp

°C
Wind Pressure Rain
since 9am
mm
Weather Cloud Vis
km
Sea
Height
m
Swell
Dir
 
Speed
knots
Gust
knots
hPa Trend Height
m
Period
s
Dir
29/11:30pm 5.4 WSW 5 7 1021.3 - 0.0 - - 10 - - - -
29/11:00pm 5.9 WSW 4 7 1021.1 - 0.0 - - 10 - - - -
29/10:30pm 6.6 WSW 5 6 1021.0 - 0.0 - - 10 - - - -
29/10:00pm 6.3 W 5 7 1020.6 - 0.0 - - 10 - - - -
29/09:30pm 5.6 WSW 4 7 1020.3 - 0.0 - - 10 - - - -
29/09:00pm 5.9 W 4 6 1020.1 - 0.0 - - 10 - - - -
29/08:30pm 6.2 W 3 6 1019.8 - 0.0 - - 10 - - - -
29/08:00pm 6.7 W 4 5 1019.3 - 0.0 - - 10 - - - -
29/07:30pm 7.9 SSW 2 6 1019.0 - 0.0 - - 10 - - - -
29/07:00pm 8.8 SW 6 7 1018.7 - 0.0 - - 10 - - - -
29/06:30pm 8.2 NW 6 7 1018.1 - 0.0 - - 10 - - - -
29/06:00pm 8.8 NNW 6 7 1017.8 - 0.0 - - 10 - - - -
29/05:30pm 9.6 NW 3 4 1017.4 - 0.0 - - 10 - - - -
29/05:00pm 12.3 S 3 4 1017.1 - 0.0 - - 10 - - - -
29/04:30pm 15.7 S 4 6 1016.7 - 0.0 - - 10 - - - -
29/04:00pm 16.8 SE 5 7 1016.1 - 0.0 - - 10 - - - -
29/03:30pm 18.0 S 8 11 1015.9 - 0.0 - - 10 - - - -
29/03:00pm 18.7 SW 8 11 1015.6 - 0.0 - - 10 - - - -
29/02:30pm 18.4 SSW 10 14 1015.3 - 0.0 - - 10 - - - -
29/02:00pm 18.5 SSW 8 11 1015.2 - 0.0 - - 10 - - - -
29/01:30pm 18.2 SSW 9 12 1015.2 - 0.0 - - 10 - - - -
29/01:00pm 17.9 SW 9 13 1015.3 - 0.0 - - 10 - - - -
29/12:30pm 17.9 SW 9 12 1015.6 - 0.0 - - 10 - - - -
29/12:00pm 17.5 SW 5 9 1015.6 - 0.0 - - 10 - - - -
29/11:30am 17.2 W 5 8 1015.8 - 0.0 - - 10 - - - -
29/11:00am 16.6 WSW 5 9 1016.0 - 0.0 - - 10 - - - -
29/10:30am 16.2 WNW 5 8 1016.0 - 0.0 - - 10 - - - -
29/10:00am 14.6 W 4 7 1016.2 - 0.0 - - 10 - - - -
29/09:30am 12.4 WNW 5 6 1016.1 - 0.0 - - 10 - - - -
29/09:00am 9.8 WNW 4 6 1015.8 - 0.0 - - 10 - - - -
29/08:30am 6.3 SW 5 7 1015.7 - 0.0 - - 10 - - - -
29/08:00am 3.3 WSW 2 6 1015.5 - 0.0 - - 10 - - - -
29/07:30am 1.4 WSW 3 5 1015.0 - 0.0 - - 10 - - - -
29/07:00am 1.0 W 3 6 1014.7 - 0.0 - - 10 - - - -
29/06:30am 1.3 CALM 0 0 1014.4 - 0.0 - - 10 - - - -
29/06:00am 0.9 WSW 1 3 1014.3 - 0.0 - - 10 - - - -
29/05:30am 1.4 WSW 2 4 1014.0 - 0.0 - - 10 - - - -
29/05:00am 1.5 WSW 4 5 1013.7 - 0.0 - - 10 - - - -
29/04:30am 1.3 SW 4 6 1013.5 - 0.0 - - 10 - - - -
29/04:00am 1.4 NW 3 5 1013.5 - 0.0 - - 10 - - - -
29/03:30am 1.9 W 3 4 1013.1 - 0.0 - - 10 - - - -
29/03:00am 2.0 WNW 3 5 1013.1 - 0.0 - - 10 - - - -
29/02:30am 2.6 CALM 0 0 1013.0 - 0.0 - - 10 - - - -
29/02:00am 2.9 WSW 1 3 1012.7 - 0.0 - - 10 - - - -
29/01:30am 3.9 W 1 4 1012.7 - 0.0 - - 10 - - - -
29/01:00am 4.0 W 4 5 1012.3 - 0.0 - - 10 - - - -
29/12:30am 3.4 WNW 2 5 1012.2 - 0.0 - - 10 - - - -
29/12:00am 4.3 SW 3 5 1012.0 - 0.0 - - 10 - - - -
 
Date/Time
EST
Temp

°C
Wind Pressure Rain
since 9am
mm
Weather Cloud Vis
km
Sea
Height
m
Swell
Dir
 
Speed
knots
Gust
knots
hPa Trend Height
m
Period
s
Dir
28/11:30pm 5.1 CALM 0 0 1012.1 - 0.0 - - 10 - - - -
28/11:00pm 5.5 WSW 3 4 1011.7 - 0.0 - - 10 - - - -
28/10:30pm 5.7 SW 6 6 1011.4 - 0.0 - - 10 - - - -
28/10:00pm 5.5 W 2 4 1011.4 - 0.0 - - 10 - - - -
28/09:30pm 5.8 SW 5 7 1011.3 - 0.0 - - 10 - - - -
28/09:00pm 6.4 WNW 1 4 1011.2 - 0.0 - Mostly clear 10 - - - -
28/08:30pm 6.6 CALM 0 0 1010.9 - 0.0 - - 10 - - - -
28/08:00pm 7.5 CALM 0 0 1010.5 - 0.0 - - 10 - - - -
28/07:30pm 8.1 W 3 3 1010.0 - 0.0 - - 10 - - - -
28/07:00pm 9.8 SW 4 6 1009.8 - 0.0 - - 10 - - - -
28/06:30pm 10.6 WSW 2 4 1009.3 - 0.0 - Partly cloudy 10 - - - -
28/06:00pm 11.6 W 4 4 1008.7 - 0.0 - Mostly cloudy 10 - - - -
28/05:30pm 12.7 W 5 7 1008.0 - 0.0 - Partly cloudy 10 - - - -
28/05:00pm 12.9 SW 3 4 1007.4 - 0.0 - - 10 - - - -
28/04:30pm 13.4 WSW 3 5 1007.3 - 0.0 - Partly cloudy 10 - - - -
28/04:00pm 14.1 S 5 8 1007.1 - 0.0 - Cloudy 10 - - - -
28/03:30pm 14.3 SSW 6 8 1006.7 - 0.0 - Partly cloudy 10 - - - -
28/03:00pm 14.3 SSW 8 11 1006.1 - 0.0 - Cloudy 10 - - - -
28/02:30pm 14.7 S 10 14 1005.7 - 0.0 - Partly cloudy 10 - - - -
28/02:00pm 15.0 SSW 12 17 1005.3 - 0.0 - Partly cloudy 10 - - - -
28/01:30pm 15.7 SSW 11 17 1005.2 - 0.0 - Partly cloudy 10 - - - -
28/01:00pm 16.5 SSE 9 16 1005.1 - 0.0 - Partly cloudy 10 - - - -
28/12:30pm 17.5 S 9 13 1005.0 - 0.0 - Partly cloudy 10 - - - -
28/12:00pm 16.3 S 9 15 1005.0 - 0.0 - - 10 - - - -
28/11:30am 16.2 SSW 4 7 1005.4 - 0.0 - - 10 - - - -
28/11:00am 15.4 SW 5 7 1005.8 - 0.0 - - 10 - - - -
28/10:30am 14.1 W 7 11 1006.0 - 0.0 - - 10 - - - -
28/10:00am 13.1 W 6 9 1006.1 - 0.0 - - 10 - - - -
28/09:30am 11.8 W 6 8 1006.2 - 0.0 - - 10 - - - -
28/09:00am 8.8 WSW 4 7 1006.2 - 0.0 - - 10 - - - -
28/08:30am 8.4 W 4 5 1006.3 - 0.0 - - 10 - - - -

Other Formats:

Comma delimited format used in spreadsheet applications
http://www.bom.gov.au/fwo/IDN60701/IDN60701.95937.axf

JavaScript Object Notation format (JSON) in row-major order
http://www.bom.gov.au/fwo/IDN60701/IDN60701.95937.json